sensor_id;sensor_type;location;lat;lon;timestamp;pressure;altitude;pressure_sealevel;temperature;humidity
8061;BME280;4073;42.626;25.386;2023-05-01T00:00:50;97086.19;;;11.92;100.00
8061;BME280;4073;42.626;25.386;2023-05-01T00:03:17;97091.88;;;11.86;100.00
8061;BME280;4073;42.626;25.386;2023-05-01T00:05:43;97069.25;;;11.73;100.00
8061;BME280;4073;42.626;25.386;2023-05-01T00:08:09;97092.44;;;11.83;100.00
8061;BME280;4073;42.626;25.386;2023-05-01T00:10:36;97087.94;;;11.78;100.00
8061;BME280;4073;42.626;25.386;2023-05-01T00:13:01;97089.56;;;11.74;100.00
8061;BME280;4073;42.626;25.386;2023-05-01T00:15:28;97092.53;;;11.73;100.00
8061;BME280;4073;42.626;25.386;2023-05-01T00:17:53;97095.53;;;11.66;100.00
8061;BME280;4073;42.626;25.386;2023-05-01T00:20:19;97092.34;;;11.59;100.00
8061;BME280;4073;42.626;25.386;2023-05-01T00:22:44;97089.47;;;11.51;100.00
8061;BME280;4073;42.626;25.386;2023-05-01T00:25:09;97088.38;;;11.52;100.00
8061;BME280;4073;42.626;25.386;2023-05-01T00:27:35;97095.06;;;11.54;100.00
8061;BME280;4073;42.626;25.386;2023-05-01T00:30:01;97089.00;;;11.44;100.00
8061;BME280;4073;42.626;25.386;2023-05-01T00:32:26;97082.88;;;11.38;100.00
8061;BME280;4073;42.626;25.386;2023-05-01T00:34:52;97077.13;;;11.16;100.00
8061;BME280;4073;42.626;25.386;2023-05-01T00:37:17;97099.56;;;11.25;100.00
8061;BME280;4073;42.626;25.386;2023-05-01T00:39:43;97095.53;;;11.23;100.00
8061;BME280;4073;42.626;25.386;2023-05-01T00:42:08;97100.38;;;11.21;100.00
8061;BME280;4073;42.626;25.386;2023-05-01T00:44:34;97074.00;;;10.99;100.00
8061;BME280;4073;42.626;25.386;2023-05-01T00:46:59;97094.81;;;11.12;100.00
8061;BME280;4073;42.626;25.386;2023-05-01T00:49:26;97096.69;;;11.12;100.00
8061;BME280;4073;42.626;25.386;2023-05-01T00:51:52;97105.03;;;11.00;100.00
8061;BME280;4073;42.626;25.386;2023-05-01T00:54:19;97098.06;;;11.04;100.00
8061;BME280;4073;42.626;25.386;2023-05-01T00:56:48;97119.44;;;11.09;100.00
8061;BME280;4073;42.626;25.386;2023-05-01T00:59:15;97109.31;;;11.01;100.00
8061;BME280;4073;42.626;25.386;2023-05-01T01:01:41;97084.53;;;10.86;100.00
8061;BME280;4073;42.626;25.386;2023-05-01T01:04:06;97088.03;;;10.81;100.00
8061;BME280;4073;42.626;25.386;2023-05-01T01:17:27;97123.34;;;10.78;100.00
8061;BME280;4073;42.626;25.386;2023-05-01T01:22:40;97143.13;;;10.72;100.00
8061;BME280;4073;42.626;25.386;2023-05-01T01:28:21;97141.09;;;10.44;100.00
8061;BME280;4073;42.626;25.386;2023-05-01T01:34:01;97141.13;;;10.19;100.00
8061;BME280;4073;42.626;25.386;2023-05-01T01:39:29;97150.75;;;10.20;100.00
8061;BME280;4073;42.626;25.386;2023-05-01T01:41:56;97147.81;;;10.21;100.00
8061;BME280;4073;42.626;25.386;2023-05-01T01:44:40;97123.22;;;10.04;100.00
8061;BME280;4073;42.626;25.386;2023-05-01T01:47:11;97120.81;;;10.03;100.00
8061;BME280;4073;42.626;25.386;2023-05-01T01:49:39;97114.97;;;10.06;100.00
8061;BME280;4073;42.626;25.386;2023-05-01T01:52:07;97142.19;;;10.23;100.00
8061;BME280;4073;42.626;25.386;2023-05-01T01:54:37;97133.66;;;10.26;100.00
8061;BME280;4073;42.626;25.386;2023-05-01T01:57:06;97141.38;;;10.27;100.00
8061;BME280;4073;42.626;25.386;2023-05-01T01:59:33;97121.34;;;10.15;100.00
8061;BME280;4073;42.626;25.386;2023-05-01T02:02:01;97141.66;;;10.26;100.00
8061;BME280;4073;42.626;25.386;2023-05-01T02:04:27;97116.03;;;10.10;100.00
8061;BME280;4073;42.626;25.386;2023-05-01T02:06:57;97106.41;;;10.09;100.00
8061;BME280;4073;42.626;25.386;2023-05-01T02:09:25;97137.91;;;10.27;100.00
8061;BME280;4073;42.626;25.386;2023-05-01T02:11:53;97140.34;;;10.18;100.00
8061;BME280;4073;42.626;25.386;2023-05-01T02:14:20;97145.69;;;10.18;100.00
8061;BME280;4073;42.626;25.386;2023-05-01T02:16:47;97149.69;;;10.16;100.00
8061;BME280;4073;42.626;25.386;2023-05-01T02:19:15;97154.75;;;10.12;100.00
8061;BME280;4073;42.626;25.386;2023-05-01T02:21:42;97150.47;;;10.16;100.00
8061;BME280;4073;42.626;25.386;2023-05-01T02:24:09;97150.22;;;10.13;100.00
8061;BME280;4073;42.626;25.386;2023-05-01T02:26:40;97140.84;;;9.85;100.00
8061;BME280;4073;42.626;25.386;2023-05-01T02:29:06;97153.66;;;9.93;100.00
8061;BME280;4073;42.626;25.386;2023-05-01T02:31:33;97149.41;;;9.87;100.00
8061;BME280;4073;42.626;25.386;2023-05-01T02:33:58;97156.06;;;9.80;100.00
8061;BME280;4073;42.626;25.386;2023-05-01T02:36:26;97164.88;;;9.60;100.00
8061;BME280;4073;42.626;25.386;2023-05-01T02:39:03;97173.13;;;9.64;100.00
8061;BME280;4073;42.626;25.386;2023-05-01T02:41:38;97163.81;;;9.56;100.00
8061;BME280;4073;42.626;25.386;2023-05-01T02:44:06;97152.06;;;9.57;100.00
8061;BME280;4073;42.626;25.386;2023-05-01T02:46:35;97142.69;;;9.40;100.00
8061;BME280;4073;42.626;25.386;2023-05-01T02:49:02;97161.13;;;9.56;100.00
8061;BME280;4073;42.626;25.386;2023-05-01T02:51:29;97167.28;;;9.62;100.00
8061;BME280;4073;42.626;25.386;2023-05-01T02:53:56;97164.88;;;9.60;100.00
8061;BME280;4073;42.626;25.386;2023-05-01T02:56:25;97173.13;;;9.54;100.00
8061;BME280;4073;42.626;25.386;2023-05-01T02:58:52;97166.16;;;9.43;100.00
8061;BME280;4073;42.626;25.386;2023-05-01T03:01:18;97172.59;;;9.42;100.00
8061;BME280;4073;42.626;25.386;2023-05-01T03:03:44;97149.59;;;9.26;100.00
8061;BME280;4073;42.626;25.386;2023-05-01T03:06:10;97184.56;;;9.39;100.00
8061;BME280;4073;42.626;25.386;2023-05-01T03:08:35;97176.81;;;9.33;100.00
8061;BME280;4073;42.626;25.386;2023-05-01T03:11:08;97151.16;;;9.12;100.00
8061;BME280;4073;42.626;25.386;2023-05-01T03:13:34;97180.81;;;9.30;100.00
8061;BME280;4073;42.626;25.386;2023-05-01T03:16:00;97151.94;;;9.02;100.00
8061;BME280;4073;42.626;25.386;2023-05-01T03:18:26;97183.75;;;9.29;100.00
8061;BME280;4073;42.626;25.386;2023-05-01T03:20:53;97172.53;;;9.27;100.00
8061;BME280;4073;42.626;25.386;2023-05-01T03:23:18;97188.28;;;9.28;100.00
8061;BME280;4073;42.626;25.386;2023-05-01T03:25:44;97184.81;;;9.33;100.00
8061;BME280;4073;42.626;25.386;2023-05-01T03:28:10;97185.38;;;9.35;100.00
8061;BME280;4073;42.626;25.386;2023-05-01T03:30:35;97186.44;;;9.39;100.00
8061;BME280;4073;42.626;25.386;2023-05-01T03:33:01;97190.97;;;9.33;100.00
8061;BME280;4073;42.626;25.386;2023-05-01T03:35:26;97147.41;;;9.08;100.00
8061;BME280;4073;42.626;25.386;2023-05-01T03:37:52;97193.63;;;9.33;100.00
8061;BME280;4073;42.626;25.386;2023-05-01T03:40:17;97197.63;;;9.41;100.00
8061;BME280;4073;42.626;25.386;2023-05-01T03:42:43;97168.56;;;9.29;100.00
8061;BME280;4073;42.626;25.386;2023-05-01T03:45:09;97201.69;;;9.43;100.00
8061;BME280;4073;42.626;25.386;2023-05-01T03:47:35;97200.56;;;9.39;100.00
8061;BME280;4073;42.626;25.386;2023-05-01T03:50:00;97199.78;;;9.39;100.00
8061;BME280;4073;42.626;25.386;2023-05-01T03:52:26;97211.28;;;9.54;100.00
8061;BME280;4073;42.626;25.386;2023-05-01T03:54:52;97211.03;;;9.61;100.00
8061;BME280;4073;42.626;25.386;2023-05-01T03:57:17;97209.72;;;9.68;100.00
8061;BME280;4073;42.626;25.386;2023-05-01T03:59:45;97204.66;;;9.77;100.00
8061;BME280;4073;42.626;25.386;2023-05-01T04:02:11;97204.66;;;9.87;100.00
8061;BME280;4073;42.626;25.386;2023-05-01T04:04:36;97214.81;;;9.95;100.00
8061;BME280;4073;42.626;25.386;2023-05-01T04:07:02;97216.69;;;9.94;100.00
8061;BME280;4073;42.626;25.386;2023-05-01T04:09:28;97217.75;;;10.03;100.00
8061;BME280;4073;42.626;25.386;2023-05-01T04:11:54;97217.75;;;10.03;100.00
8061;BME280;4073;42.626;25.386;2023-05-01T04:14:20;97198.00;;;9.94;100.00
8061;BME280;4073;42.626;25.386;2023-05-01T04:16:45;97228.75;;;10.17;100.00
8061;BME280;4073;42.626;25.386;2023-05-01T04:19:12;97230.91;;;10.20;100.00
8061;BME280;4073;42.626;25.386;2023-05-01T04:21:46;97232.75;;;10.19;100.00
8061;BME280;4073;42.626;25.386;2023-05-01T04:24:11;97233.84;;;10.18;100.00
8061;BME280;4073;42.626;25.386;2023-05-01T04:26:37;97235.44;;;10.19;100.00
8061;BME280;4073;42.626;25.386;2023-05-01T04:29:03;97238.66;;;10.21;100.00
8061;BME280;4073;42.626;25.386;2023-05-01T04:31:29;97236.75;;;10.22;100.00
8061;BME280;4073;42.626;25.386;2023-05-01T04:33:54;97241.56;;;10.25;100.00
8061;BME280;4073;42.626;25.386;2023-05-01T04:36:20;97233.31;;;10.31;100.00
8061;BME280;4073;42.626;25.386;2023-05-01T04:38:45;97215.13;;;10.23;100.00
8061;BME280;4073;42.626;25.386;2023-05-01T04:41:11;97245.84;;;10.46;100.00
8061;BME280;4073;42.626;25.386;2023-05-01T04:43:36;97247.47;;;10.47;100.00
8061;BME280;4073;42.626;25.386;2023-05-01T04:46:02;97252.00;;;10.52;100.00
8061;BME280;4073;42.626;25.386;2023-05-01T04:48:28;97245.31;;;10.64;100.00
8061;BME280;4073;42.626;25.386;2023-05-01T04:50:54;97219.63;;;10.58;100.00
8061;BME280;4073;42.626;25.386;2023-05-01T04:53:20;97233.75;;;10.79;100.00
8061;BME280;4073;42.626;25.386;2023-05-01T04:55:45;97249.25;;;10.92;100.00
8061;BME280;4073;42.626;25.386;2023-05-01T04:58:11;97236.91;;;10.96;100.00
8061;BME280;4073;42.626;25.386;2023-05-01T05:00:36;97254.00;;;11.15;100.00
8061;BME280;4073;42.626;25.386;2023-05-01T05:03:01;97250.97;;;11.31;100.00
8061;BME280;4073;42.626;25.386;2023-05-01T05:05:27;97257.06;;;11.52;100.00
8061;BME280;4073;42.626;25.386;2023-05-01T05:07:52;97241.97;;;11.76;100.00
8061;BME280;4073;42.626;25.386;2023-05-01T05:10:18;97248.16;;;12.10;100.00
8061;BME280;4073;42.626;25.386;2023-05-01T05:12:43;97247.94;;;12.40;100.00
8061;BME280;4073;42.626;25.386;2023-05-01T05:15:09;97261.81;;;12.75;100.00
8061;BME280;4073;42.626;25.386;2023-05-01T05:17:35;97229.47;;;12.90;100.00
8061;BME280;4073;42.626;25.386;2023-05-01T05:20:01;97273.56;;;13.37;100.00
8061;BME280;4073;42.626;25.386;2023-05-01T05:22:26;97244.00;;;13.37;100.00
8061;BME280;4073;42.626;25.386;2023-05-01T05:24:55;97276.53;;;13.77;100.00
8061;BME280;4073;42.626;25.386;2023-05-01T05:27:24;97280.09;;;13.91;100.00
8061;BME280;4073;42.626;25.386;2023-05-01T05:29:50;97257.88;;;13.86;100.00
8061;BME280;4073;42.626;25.386;2023-05-01T05:32:15;97289.41;;;14.17;100.00
8061;BME280;4073;42.626;25.386;2023-05-01T05:34:41;97255.59;;;14.11;100.00
8061;BME280;4073;42.626;25.386;2023-05-01T05:37:06;97289.66;;;14.39;100.00
8061;BME280;4073;42.626;25.386;2023-05-01T05:39:32;97258.97;;;14.40;100.00
8061;BME280;4073;42.626;25.386;2023-05-01T05:41:58;97287.97;;;14.75;100.00
8061;BME280;4073;42.626;25.386;2023-05-01T05:44:24;97291.47;;;14.89;100.00
8061;BME280;4073;42.626;25.386;2023-05-01T05:46:49;97293.44;;;15.16;100.00
8061;BME280;4073;42.626;25.386;2023-05-01T05:49:15;97296.50;;;15.41;100.00
8061;BME280;4073;42.626;25.386;2023-05-01T05:51:40;97310.94;;;15.73;100.00
8061;BME280;4073;42.626;25.386;2023-05-01T05:54:05;97279.69;;;15.85;100.00
8061;BME280;4073;42.626;25.386;2023-05-01T05:56:31;97305.94;;;16.29;100.00
8061;BME280;4073;42.626;25.386;2023-05-01T05:58:56;97306.19;;;16.54;100.00
8061;BME280;4073;42.626;25.386;2023-05-01T06:01:22;97303.06;;;16.83;100.00
8061;BME280;4073;42.626;25.386;2023-05-01T06:03:48;97308.75;;;17.03;100.00
8061;BME280;4073;42.626;25.386;2023-05-01T06:06:13;97308.03;;;17.20;100.00
8061;BME280;4073;42.626;25.386;2023-05-01T06:08:39;97315.94;;;17.38;100.00
8061;BME280;4073;42.626;25.386;2023-05-01T06:11:04;97313.63;;;17.54;100.00
8061;BME280;4073;42.626;25.386;2023-05-01T06:13:31;97320.13;;;17.44;100.00
8061;BME280;4073;42.626;25.386;2023-05-01T06:15:57;97322.59;;;17.41;100.00
8061;BME280;4073;42.626;25.386;2023-05-01T06:18:22;97323.53;;;17.67;100.00
8061;BME280;4073;42.626;25.386;2023-05-01T06:20:47;97327.13;;;17.84;100.00
8061;BME280;4073;42.626;25.386;2023-05-01T06:23:13;97331.13;;;18.04;100.00
8061;BME280;4073;42.626;25.386;2023-05-01T06:25:39;97312.81;;;18.01;100.00
8061;BME280;4073;42.626;25.386;2023-05-01T06:28:05;97333.63;;;18.65;84.03
8061;BME280;4073;42.626;25.386;2023-05-01T06:30:30;97345.38;;;18.95;75.92
8061;BME280;4073;42.626;25.386;2023-05-01T06:32:56;97343.56;;;19.24;73.87
8061;BME280;4073;42.626;25.386;2023-05-01T06:35:21;97320.00;;;19.33;74.18
8061;BME280;4073;42.626;25.386;2023-05-01T06:37:47;97350.91;;;19.78;73.27
8061;BME280;4073;42.626;25.386;2023-05-01T06:40:12;97355.13;;;20.05;72.93
8061;BME280;4073;42.626;25.386;2023-05-01T06:42:38;97345.50;;;20.07;71.28
8061;BME280;4073;42.626;25.386;2023-05-01T06:45:08;97357.09;;;20.25;72.18
8061;BME280;4073;42.626;25.386;2023-05-01T06:47:33;97360.31;;;20.18;71.59
8061;BME280;4073;42.626;25.386;2023-05-01T06:49:59;97348.81;;;20.21;70.78
8061;BME280;4073;42.626;25.386;2023-05-01T06:52:25;97368.91;;;20.29;72.14
8061;BME280;4073;42.626;25.386;2023-05-01T06:54:50;97376.44;;;20.44;73.11
8061;BME280;4073;42.626;25.386;2023-05-01T06:57:15;97377.06;;;20.50;71.88
8061;BME280;4073;42.626;25.386;2023-05-01T06:59:41;97382.63;;;20.53;70.49
8061;BME280;4073;42.626;25.386;2023-05-01T07:02:06;97375.41;;;20.57;68.85
8061;BME280;4073;42.626;25.386;2023-05-01T07:04:32;97380.56;;;20.71;66.97
8061;BME280;4073;42.626;25.386;2023-05-01T07:06:57;97387.72;;;20.75;66.87
8061;BME280;4073;42.626;25.386;2023-05-01T07:09:23;97393.16;;;20.75;65.71
8061;BME280;4073;42.626;25.386;2023-05-01T07:11:48;97369.78;;;20.62;63.99
8061;BME280;4073;42.626;25.386;2023-05-01T07:14:14;97398.66;;;20.67;65.17
8061;BME280;4073;42.626;25.386;2023-05-01T07:16:39;97398.72;;;20.58;66.46
8061;BME280;4073;42.626;25.386;2023-05-01T07:19:05;97395.84;;;20.34;64.05
8061;BME280;4073;42.626;25.386;2023-05-01T07:21:31;97389.63;;;20.33;66.64
8061;BME280;4073;42.626;25.386;2023-05-01T07:23:56;97395.25;;;20.28;68.14
8061;BME280;4073;42.626;25.386;2023-05-01T07:26:24;97367.16;;;19.87;63.41
8061;BME280;4073;42.626;25.386;2023-05-01T07:28:50;97393.91;;;19.68;62.54
8061;BME280;4073;42.626;25.386;2023-05-01T07:31:15;97375.16;;;19.12;65.28
8061;BME280;4073;42.626;25.386;2023-05-01T07:33:41;97394.94;;;19.12;66.02
8061;BME280;4073;42.626;25.386;2023-05-01T07:36:06;97400.38;;;19.04;67.78
8061;BME280;4073;42.626;25.386;2023-05-01T07:38:32;97390.81;;;18.98;66.54
8061;BME280;4073;42.626;25.386;2023-05-01T07:40:57;97399.25;;;18.88;65.69
8061;BME280;4073;42.626;25.386;2023-05-01T07:43:23;97394.78;;;18.83;67.04
8061;BME280;4073;42.626;25.386;2023-05-01T07:45:55;97401.81;;;18.84;71.46
8061;BME280;4073;42.626;25.386;2023-05-01T07:48:25;97402.13;;;18.83;72.01
8061;BME280;4073;42.626;25.386;2023-05-01T07:50:51;97381.56;;;18.65;72.79
8061;BME280;4073;42.626;25.386;2023-05-01T07:53:17;97398.63;;;18.82;73.17
8061;BME280;4073;42.626;25.386;2023-05-01T07:55:42;97405.31;;;18.76;73.78
8061;BME280;4073;42.626;25.386;2023-05-01T07:58:07;97398.28;;;19.09;75.35
8061;BME280;4073;42.626;25.386;2023-05-01T08:00:34;97404.34;;;19.32;77.45
8061;BME280;4073;42.626;25.386;2023-05-01T08:02:59;97399.53;;;19.46;75.19
8061;BME280;4073;42.626;25.386;2023-05-01T08:05:25;97404.78;;;19.51;74.51
8061;BME280;4073;42.626;25.386;2023-05-01T08:07:50;97416.91;;;19.45;74.20
8061;BME280;4073;42.626;25.386;2023-05-01T08:10:16;97386.00;;;19.37;74.91
8061;BME280;4073;42.626;25.386;2023-05-01T08:12:41;97416.19;;;20.19;74.02
8061;BME280;4073;42.626;25.386;2023-05-01T08:15:07;97421.53;;;20.95;68.75
8061;BME280;4073;42.626;25.386;2023-05-01T08:17:34;97421.66;;;21.51;65.84
8061;BME280;4073;42.626;25.386;2023-05-01T08:20:00;97425.06;;;21.60;63.27
8061;BME280;4073;42.626;25.386;2023-05-01T08:22:26;97421.50;;;21.48;64.83
8061;BME280;4073;42.626;25.386;2023-05-01T08:24:51;97423.13;;;21.28;62.56
8061;BME280;4073;42.626;25.386;2023-05-01T08:27:17;97428.31;;;21.21;63.91
8061;BME280;4073;42.626;25.386;2023-05-01T08:29:42;97432.13;;;21.41;62.08
8061;BME280;4073;42.626;25.386;2023-05-01T08:32:08;97416.72;;;21.77;62.77
8061;BME280;4073;42.626;25.386;2023-05-01T08:34:33;97440.50;;;22.37;59.08
8061;BME280;4073;42.626;25.386;2023-05-01T08:36:59;97413.84;;;22.54;56.57
8061;BME280;4073;42.626;25.386;2023-05-01T08:39:24;97429.00;;;23.04;56.25
8061;BME280;4073;42.626;25.386;2023-05-01T08:41:50;97427.00;;;22.77;57.22
8061;BME280;4073;42.626;25.386;2023-05-01T08:44:18;97437.34;;;22.59;60.57
8061;BME280;4073;42.626;25.386;2023-05-01T08:46:52;97435.50;;;22.15;63.17
8061;BME280;4073;42.626;25.386;2023-05-01T08:49:23;97434.53;;;21.75;63.72
8061;BME280;4073;42.626;25.386;2023-05-01T08:51:50;97444.81;;;21.16;64.48
8061;BME280;4073;42.626;25.386;2023-05-01T08:54:19;97434.41;;;20.77;66.68
8061;BME280;4073;42.626;25.386;2023-05-01T08:56:46;97441.03;;;20.38;70.78
8061;BME280;4073;42.626;25.386;2023-05-01T08:59:13;97435.09;;;20.07;71.18
8061;BME280;4073;42.626;25.386;2023-05-01T09:01:40;97437.59;;;20.21;69.93
8061;BME280;4073;42.626;25.386;2023-05-01T09:04:06;97412.28;;;20.00;68.09
8061;BME280;4073;42.626;25.386;2023-05-01T09:06:33;97430.47;;;20.08;70.49
8061;BME280;4073;42.626;25.386;2023-05-01T09:08:59;97424.38;;;20.11;70.37
8061;BME280;4073;42.626;25.386;2023-05-01T09:11:25;97414.84;;;19.96;68.83
8061;BME280;4073;42.626;25.386;2023-05-01T09:13:52;97436.91;;;19.86;66.71
8061;BME280;4073;42.626;25.386;2023-05-01T09:16:18;97419.41;;;19.67;68.85
8061;BME280;4073;42.626;25.386;2023-05-01T09:18:44;97426.00;;;19.23;70.72
8061;BME280;4073;42.626;25.386;2023-05-01T09:21:10;97419.78;;;19.06;72.62
8061;BME280;4073;42.626;25.386;2023-05-01T09:23:36;97437.19;;;18.96;70.51
8061;BME280;4073;42.626;25.386;2023-05-01T09:26:08;97425.22;;;19.06;69.84
8061;BME280;4073;42.626;25.386;2023-05-01T09:28:44;97441.16;;;19.33;67.42
8061;BME280;4073;42.626;25.386;2023-05-01T09:31:20;97454.56;;;19.21;69.32
8061;BME280;4073;42.626;25.386;2023-05-01T09:33:54;97455.69;;;19.03;69.08
8061;BME280;4073;42.626;25.386;2023-05-01T09:36:20;97449.28;;;19.24;66.45
8061;BME280;4073;42.626;25.386;2023-05-01T09:38:46;97449.00;;;19.97;64.03
8061;BME280;4073;42.626;25.386;2023-05-01T09:41:13;97458.75;;;20.65;61.90
8061;BME280;4073;42.626;25.386;2023-05-01T09:43:39;97460.38;;;20.87;57.79
8061;BME280;4073;42.626;25.386;2023-05-01T09:46:08;97435.56;;;20.97;54.10
8061;BME280;4073;42.626;25.386;2023-05-01T09:48:35;97469.47;;;21.52;54.05
8061;BME280;4073;42.626;25.386;2023-05-01T09:51:19;97466.72;;;20.99;53.11
8061;BME280;4073;42.626;25.386;2023-05-01T09:53:46;97475.59;;;20.79;55.79
8061;BME280;4073;42.626;25.386;2023-05-01T09:56:11;97477.16;;;20.60;58.19
8061;BME280;4073;42.626;25.386;2023-05-01T09:58:36;97465.22;;;20.23;61.05
8061;BME280;4073;42.626;25.386;2023-05-01T10:01:02;97456.56;;;20.29;61.27
8061;BME280;4073;42.626;25.386;2023-05-01T10:03:28;97488.41;;;20.50;58.58
8061;BME280;4073;42.626;25.386;2023-05-01T10:05:54;97496.31;;;20.34;62.55
8061;BME280;4073;42.626;25.386;2023-05-01T10:08:21;97491.44;;;20.48;63.93
8061;BME280;4073;42.626;25.386;2023-05-01T10:11:01;97496.84;;;20.10;63.63
8061;BME280;4073;42.626;25.386;2023-05-01T10:13:28;97493.31;;;19.64;65.81
8061;BME280;4073;42.626;25.386;2023-05-01T10:15:55;97506.69;;;19.09;65.00
8061;BME280;4073;42.626;25.386;2023-05-01T10:18:21;97490.56;;;18.96;67.92
8061;BME280;4073;42.626;25.386;2023-05-01T10:20:47;97497.53;;;18.63;68.51
8061;BME280;4073;42.626;25.386;2023-05-01T10:23:13;97492.94;;;18.33;70.93
8061;BME280;4073;42.626;25.386;2023-05-01T10:25:40;97486.19;;;18.13;74.08
8061;BME280;4073;42.626;25.386;2023-05-01T10:28:08;97493.59;;;17.99;75.24
8061;BME280;4073;42.626;25.386;2023-05-01T10:30:34;97491.81;;;17.94;74.84
8061;BME280;4073;42.626;25.386;2023-05-01T10:33:00;97498.81;;;17.95;74.54
8061;BME280;4073;42.626;25.386;2023-05-01T10:35:35;97468.19;;;17.78;76.18
8061;BME280;4073;42.626;25.386;2023-05-01T10:38:07;97481.75;;;17.86;81.45
8061;BME280;4073;42.626;25.386;2023-05-01T10:45:52;97495.63;;;17.63;79.55
8061;BME280;4073;42.626;25.386;2023-05-01T10:53:34;97463.06;;;17.46;80.99
8061;BME280;4073;42.626;25.386;2023-05-01T10:55:59;97497.31;;;17.81;82.81
8061;BME280;4073;42.626;25.386;2023-05-01T11:04:07;97497.69;;;18.27;77.27
8061;BME280;4073;42.626;25.386;2023-05-01T11:09:40;97499.88;;;18.47;71.79
8061;BME280;4073;42.626;25.386;2023-05-01T11:12:07;97499.75;;;18.61;73.23
8061;BME280;4073;42.626;25.386;2023-05-01T11:23:01;97496.81;;;19.22;67.58
8061;BME280;4073;42.626;25.386;2023-05-01T11:25:29;97499.06;;;19.54;69.79
8061;BME280;4073;42.626;25.386;2023-05-01T11:27:56;97498.22;;;20.42;64.60
8061;BME280;4073;42.626;25.386;2023-05-01T11:30:22;97486.72;;;21.77;59.58
8061;BME280;4073;42.626;25.386;2023-05-01T11:32:49;97510.06;;;22.22;56.80
8061;BME280;4073;42.626;25.386;2023-05-01T11:35:19;97512.78;;;21.78;54.14
8061;BME280;4073;42.626;25.386;2023-05-01T11:37:46;97514.47;;;21.50;54.72
8061;BME280;4073;42.626;25.386;2023-05-01T11:40:22;97509.53;;;21.02;56.92
8061;BME280;4073;42.626;25.386;2023-05-01T11:42:49;97517.50;;;20.78;52.95
8061;BME280;4073;42.626;25.386;2023-05-01T11:45:16;97511.22;;;20.57;56.90
8061;BME280;4073;42.626;25.386;2023-05-01T11:47:41;97513.13;;;20.57;56.58
8061;BME280;4073;42.626;25.386;2023-05-01T11:50:08;97512.88;;;20.41;56.24
8061;BME280;4073;42.626;25.386;2023-05-01T11:52:44;97504.16;;;20.27;54.70
8061;BME280;4073;42.626;25.386;2023-05-01T11:55:11;97499.41;;;20.15;54.45
8061;BME280;4073;42.626;25.386;2023-05-01T11:57:46;97485.06;;;20.15;54.30
8061;BME280;4073;42.626;25.386;2023-05-01T12:00:37;97493.19;;;20.23;54.23
8061;BME280;4073;42.626;25.386;2023-05-01T12:03:04;97477.19;;;20.30;54.69
8061;BME280;4073;42.626;25.386;2023-05-01T12:05:34;97489.22;;;20.50;54.78
8061;BME280;4073;42.626;25.386;2023-05-01T12:08:20;97465.19;;;20.61;53.48
8061;BME280;4073;42.626;25.386;2023-05-01T12:10:49;97487.66;;;21.19;52.25
8061;BME280;4073;42.626;25.386;2023-05-01T12:13:15;97474.91;;;21.32;51.12
8061;BME280;4073;42.626;25.386;2023-05-01T12:15:45;97480.75;;;21.42;50.74
8061;BME280;4073;42.626;25.386;2023-05-01T12:18:13;97485.28;;;21.38;51.89
8061;BME280;4073;42.626;25.386;2023-05-01T12:20:40;97477.63;;;21.32;51.65
8061;BME280;4073;42.626;25.386;2023-05-01T12:23:07;97476.34;;;21.17;52.65
8061;BME280;4073;42.626;25.386;2023-05-01T12:25:35;97474.03;;;21.07;53.77
8061;BME280;4073;42.626;25.386;2023-05-01T12:28:02;97471.28;;;21.28;51.76
8061;BME280;4073;42.626;25.386;2023-05-01T12:30:31;97442.81;;;21.46;59.36
8061;BME280;4073;42.626;25.386;2023-05-01T12:32:57;97457.50;;;21.98;62.79
8061;BME280;4073;42.626;25.386;2023-05-01T12:35:28;97444.47;;;22.03;56.09
8061;BME280;4073;42.626;25.386;2023-05-01T12:37:55;97457.97;;;22.36;55.21
8061;BME280;4073;42.626;25.386;2023-05-01T12:40:21;97461.41;;;22.45;52.71
8061;BME280;4073;42.626;25.386;2023-05-01T12:42:56;97470.72;;;22.56;47.43
8061;BME280;4073;42.626;25.386;2023-05-01T12:45:22;97462.78;;;22.75;48.87
8061;BME280;4073;42.626;25.386;2023-05-01T12:47:48;97459.25;;;22.87;49.70
8061;BME280;4073;42.626;25.386;2023-05-01T12:50:14;97451.50;;;23.01;51.16
8061;BME280;4073;42.626;25.386;2023-05-01T12:52:40;97437.44;;;22.74;49.89
8061;BME280;4073;42.626;25.386;2023-05-01T12:55:06;97447.88;;;22.85;51.96
8061;BME280;4073;42.626;25.386;2023-05-01T12:57:33;97446.63;;;22.82;48.87
8061;BME280;4073;42.626;25.386;2023-05-01T13:00:01;97455.13;;;22.93;47.49
8061;BME280;4073;42.626;25.386;2023-05-01T13:02:32;97448.56;;;22.69;47.85
8061;BME280;4073;42.626;25.386;2023-05-01T13:05:09;97447.44;;;22.70;48.05
8061;BME280;4073;42.626;25.386;2023-05-01T13:07:35;97447.78;;;22.69;47.06
8061;BME280;4073;42.626;25.386;2023-05-01T13:10:02;97455.38;;;22.75;46.90
8061;BME280;4073;42.626;25.386;2023-05-01T13:12:30;97453.81;;;22.74;48.31
8061;BME280;4073;42.626;25.386;2023-05-01T13:14:56;97453.25;;;22.69;47.44
8061;BME280;4073;42.626;25.386;2023-05-01T13:17:26;97443.44;;;22.92;49.71
8061;BME280;4073;42.626;25.386;2023-05-01T13:20:02;97452.44;;;23.20;51.49
8061;BME280;4073;42.626;25.386;2023-05-01T13:22:35;97450.34;;;23.02;50.17
8061;BME280;4073;42.626;25.386;2023-05-01T13:25:14;97441.00;;;23.03;48.38
8061;BME280;4073;42.626;25.386;2023-05-01T13:27:40;97445.59;;;23.38;48.29
8061;BME280;4073;42.626;25.386;2023-05-01T13:30:06;97449.00;;;23.35;47.17
8061;BME280;4073;42.626;25.386;2023-05-01T13:32:32;97455.16;;;23.32;46.70
8061;BME280;4073;42.626;25.386;2023-05-01T13:35:00;97453.69;;;23.35;48.68
8061;BME280;4073;42.626;25.386;2023-05-01T13:37:26;97448.97;;;23.47;47.03
8061;BME280;4073;42.626;25.386;2023-05-01T13:39:56;97463.78;;;23.34;46.64
8061;BME280;4073;42.626;25.386;2023-05-01T13:42:23;97438.63;;;23.01;49.43
8061;BME280;4073;42.626;25.386;2023-05-01T13:44:54;97457.91;;;23.08;47.57
8061;BME280;4073;42.626;25.386;2023-05-01T13:47:21;97466.19;;;22.72;50.55
8061;BME280;4073;42.626;25.386;2023-05-01T13:49:50;97459.56;;;22.37;51.04
8061;BME280;4073;42.626;25.386;2023-05-01T13:52:16;97462.13;;;21.85;51.41
8061;BME280;4073;42.626;25.386;2023-05-01T13:54:42;97469.03;;;21.09;55.36
8061;BME280;4073;42.626;25.386;2023-05-01T13:57:08;97477.41;;;20.75;56.86